Time;durP1;ratioP1;P1;durP2;ratioP2;P2;SDS_P1;SDS_P2;PMS_P1;PMS_P2;Temp;Humidity;BMP_temperature;BMP_pressure;BME280_temperature;BME280_humidity;BME280_pressure;Samples;Min_cycle;Max_cycle;Signal;HPM_P1;HPM_P2
2023/04/02 00:00:33;;;;;;;1.60;0.57;;;;;;;10.06;74.36;96770.25;9821140;30;20424;-77
2023/04/02 00:06:38;;;;;;;0.73;0.40;;;;;;;10.10;75.00;96778.09;9777624;30;20057;-77
2023/04/02 00:12:14;;;;;;;1.92;0.55;;;;;;;10.12;74.62;96781.00;9796467;30;20060;-77
2023/04/02 00:17:35;;;;;;;1.88;0.55;;;;;;;10.14;74.88;96789.47;9785577;30;20069;-77
2023/04/02 00:22:55;;;;;;;0.63;0.40;;;;;;;10.12;75.13;96784.50;9785274;30;20064;-77
2023/04/02 00:28:20;;;;;;;1.48;0.60;;;;;;;10.10;75.42;96784.41;9781963;30;20083;-77
2023/04/02 00:33:41;;;;;;;1.25;0.60;;;;;;;10.12;76.21;96794.94;9782030;30;20052;-77
2023/04/02 00:39:07;;;;;;;0.93;0.40;;;;;;;10.10;75.52;96803.91;9781918;30;20126;-77
2023/04/02 00:44:31;;;;;;;0.80;0.55;;;;;;;10.11;75.66;96799.06;9781796;30;20057;-77
2023/04/02 00:49:58;;;;;;;0.68;0.50;;;;;;;10.10;76.01;96803.91;9783458;30;20519;-77
2023/04/02 00:55:36;;;;;;;1.48;0.60;;;;;;;10.12;76.10;96806.09;9781828;30;20091;-77
2023/04/02 01:00:57;;;;;;;1.70;0.63;;;;;;;10.08;76.02;96803.81;9779913;30;20060;-77
2023/04/02 01:06:18;;;;;;;1.00;0.70;;;;;;;10.09;76.31;96810.84;9780079;30;20091;-77
2023/04/02 01:11:51;;;;;;;1.75;0.60;;;;;;;10.09;76.56;96815.69;9780087;30;20140;-77
2023/04/02 01:17:31;;;;;;;2.83;0.65;;;;;;;10.07;76.87;96815.59;9779362;30;20084;-77
2023/04/02 01:23:01;;;;;;;1.17;0.60;;;;;;;10.04;76.98;96820.34;9791796;30;20416;-76
2023/04/02 01:28:45;;;;;;;1.52;0.70;;;;;;;10.01;76.89;96824.31;9779551;30;20488;-77
2023/04/02 01:34:11;;;;;;;1.30;0.70;;;;;;;10.00;76.76;96837.53;9793661;30;20057;-77
2023/04/02 01:39:50;;;;;;;2.25;0.85;;;;;;;9.98;76.88;96828.34;9779225;30;20067;-77
2023/04/02 01:45:13;;;;;;;1.88;0.82;;;;;;;9.97;76.97;96836.00;9791061;30;20064;-77
2023/04/02 01:50:38;;;;;;;1.20;0.70;;;;;;;9.94;77.49;96844.84;9767333;30;20080;-77
2023/04/02 01:56:00;;;;;;;0.85;0.57;;;;;;;9.94;77.14;96850.41;9767346;30;20060;-77
2023/04/02 02:01:22;;;;;;;2.33;0.57;;;;;;;9.95;77.52;96851.88;9778709;30;20052;-76
2023/04/02 02:06:45;;;;;;;2.45;0.80;;;;;;;9.96;77.93;96856.13;9779474;30;20083;-76
2023/04/02 02:12:06;;;;;;;1.88;0.85;;;;;;;9.98;77.56;96856.22;9790857;30;20104;-77
2023/04/02 02:17:29;;;;;;;2.22;0.80;;;;;;;9.98;77.65;96856.97;9778771;30;20084;-77
2023/04/02 02:22:50;;;;;;;2.08;0.68;;;;;;;9.99;77.79;96857.69;9779099;30;20076;-77
2023/04/02 02:28:24;;;;;;;2.42;0.93;;;;;;;9.98;78.18;96862.53;9790861;30;20057;-76
2023/04/02 02:33:49;;;;;;;1.88;0.80;;;;;;;9.98;78.10;96876.47;9778781;30;20122;-77
2023/04/02 02:39:24;;;;;;;2.50;0.65;;;;;;;9.97;78.14;96874.31;9784311;30;20442;-77
2023/04/02 02:44:46;;;;;;;2.95;0.85;;;;;;;9.97;78.69;96883.38;9785657;30;20061;-77
2023/04/02 02:50:12;;;;;;;2.20;1.00;;;;;;;9.99;78.46;96889.06;9785932;30;20056;-76
2023/04/02 02:55:35;;;;;;;2.15;1.10;;;;;;;10.00;78.63;96898.16;9785996;30;20056;-77
2023/04/02 03:01:08;;;;;;;4.05;1.70;;;;;;;9.97;78.97;96900.13;9787610;30;20080;-77
2023/04/02 03:06:32;;;;;;;3.10;2.03;;;;;;;9.98;78.89;96906.41;9785944;30;20111;-77
2023/04/02 03:12:01;;;;;;;2.10;1.65;;;;;;;10.01;78.78;96916.34;9785633;30;20060;-77
2023/04/02 03:17:35;;;;;;;3.60;1.98;;;;;;;10.02;78.92;96923.34;9797787;30;20114;-76
2023/04/02 03:23:20;;;;;;;2.95;2.25;;;;;;;9.99;78.95;96928.09;9785365;30;20099;-77
2023/04/02 03:28:46;;;;;;;4.13;2.97;;;;;;;9.94;79.09;96931.25;9786390;30;20079;-77
2023/04/02 03:34:16;;;;;;;3.97;3.53;;;;;;;9.84;78.88;96930.69;9772882;30;20077;-77
2023/04/02 03:39:38;;;;;;;4.57;3.38;;;;;;;9.80;79.43;96947.91;9785053;30;20061;-77
2023/04/02 03:45:09;;;;;;;5.60;3.00;;;;;;;9.70;79.22;96958.47;9809460;30;20064;-77
2023/04/02 03:50:34;;;;;;;4.78;3.60;;;;;;;9.69;79.54;96968.19;9783781;30;20090;-77
2023/04/02 03:55:55;;;;;;;4.13;3.53;;;;;;;9.65;80.03;96976.28;9783533;30;20067;-77
2023/04/02 04:01:30;;;;;;;5.15;2.92;;;;;;;9.53;79.41;96978.34;9783343;30;20443;-77
2023/04/02 04:06:51;;;;;;;5.53;2.70;;;;;;;9.34;80.05;96993.25;9781807;30;20060;-77
2023/04/02 04:12:20;;;;;;;4.68;3.03;;;;;;;9.25;79.53;97003.19;9790282;30;20060;-77
2023/04/02 04:18:03;;;;;;;3.63;2.42;;;;;;;9.17;79.93;97009.00;9781520;30;20067;-76
2023/04/02 04:23:36;;;;;;;3.65;2.30;;;;;;;9.09;80.43;97024.47;9771926;30;20060;-76
2023/04/02 04:29:15;;;;;;;2.88;2.15;;;;;;;9.09;79.78;97038.41;9779212;30;20057;-76
2023/04/02 04:34:45;;;;;;;4.25;2.40;;;;;;;8.94;79.48;97047.19;9790357;30;20053;-77
2023/04/02 04:40:20;;;;;;;3.80;2.60;;;;;;;8.85;79.73;97066.16;9767596;30;20118;-77
2023/04/02 04:45:50;;;;;;;3.97;2.72;;;;;;;8.68;79.41;97072.03;9742971;30;20068;-77
2023/04/02 04:51:26;;;;;;;4.78;2.63;;;;;;;8.60;79.69;97088.22;9741549;30;20060;-77
2023/04/02 04:56:50;;;;;;;3.93;2.70;;;;;;;8.49;79.01;97109.09;9725709;30;20064;-77
2023/04/02 05:02:28;;;;;;;2.88;2.53;;;;;;;8.23;79.05;97121.97;9740677;30;20052;-77
2023/04/02 05:07:52;;;;;;;2.90;2.00;;;;;;;8.21;79.41;97132.22;9727355;30;20053;-76
2023/04/02 05:13:28;;;;;;;3.08;2.15;;;;;;;8.14;79.33;97141.47;9739469;30;20053;-77
2023/04/02 05:19:10;;;;;;;2.83;1.80;;;;;;;8.16;79.35;97147.88;9738081;30;20068;-77
2023/04/02 05:24:53;;;;;;;2.20;1.73;;;;;;;8.20;78.60;97158.53;9736843;30;20108;-77
2023/04/02 05:30:27;;;;;;;2.42;1.90;;;;;;;8.02;78.42;97171.97;9748838;30;20059;-76
2023/04/02 05:36:10;;;;;;;3.50;2.13;;;;;;;7.89;78.61;97175.22;9737990;30;20065;-76
2023/04/02 05:41:44;;;;;;;3.38;2.00;;;;;;;7.77;78.33;97185.50;9739269;30;20053;-76
2023/04/02 05:47:19;;;;;;;2.65;1.88;;;;;;;7.74;78.38;97196.47;9735928;30;20053;-76
2023/04/02 05:53:08;;;;;;;2.35;1.85;;;;;;;7.84;78.49;97207.56;9749569;30;21341;-76
2023/04/02 05:58:40;;;;;;;2.05;1.48;;;;;;;7.69;77.85;97228.06;9746058;30;20049;-77
2023/04/02 06:04:49;;;;;;;2.47;1.30;;;;;;;7.56;78.28;97250.03;9736686;30;20068;-76
2023/04/02 06:10:59;;;;;;;1.27;0.75;;;;;;;7.54;77.35;97253.41;9748529;30;20049;-76
2023/04/02 06:16:24;;;;;;;1.27;1.00;;;;;;;7.55;77.65;97265.25;9724140;30;20061;-76
2023/04/02 06:21:45;;;;;;;1.58;1.10;;;;;;;7.55;77.77;97271.53;9723162;30;20057;-76
2023/04/02 06:33:59;;;;;;;1.55;0.77;;;;;;;7.44;76.69;97297.09;11217770;24;20129;31
2023/04/02 06:52:29;;;;;;;0.98;0.55;;;;;;;7.19;76.20;97339.00;9760029;30;20437;-77
2023/04/02 06:57:54;;;;;;;;;;;;;;;7.15;75.66;97349.84;9760303;30;21732;-76
2023/04/02 07:03:24;;;;;;;1.60;0.60;;;;;;;7.21;75.55;97360.63;9771259;30;20382;-75
2023/04/02 07:08:48;;;;;;;1.17;0.80;;;;;;;7.27;75.79;97375.72;9759548;30;20098;-75
2023/04/02 07:14:13;;;;;;;1.10;0.70;;;;;;;7.42;75.98;97389.31;9759293;30;20066;-76
2023/04/02 07:19:34;;;;;;;1.25;0.60;;;;;;;7.60;74.85;97403.06;9760756;30;20064;-75
2023/04/02 07:24:55;;;;;;;1.65;0.68;;;;;;;7.63;73.84;97411.00;9777982;30;20060;-76
2023/04/02 07:30:17;;;;;;;1.58;0.65;;;;;;;7.68;73.70;97421.06;9768527;30;20061;-76
2023/04/02 07:35:39;;;;;;;1.17;0.70;;;;;;;7.91;72.92;97437.34;9769253;30;20402;-77
2023/04/02 07:41:05;;;;;;;1.23;0.70;;;;;;;7.93;72.82;97447.88;9774861;30;20057;-77
2023/04/02 07:47:40;;;;;;;2.25;0.60;;;;;;;8.09;71.71;97453.84;10681283;24;20064;-80
2023/04/02 07:53:02;;;;;;;0.90;0.40;;;;;;;8.37;71.90;97469.81;9869282;30;20040;-82
2023/04/02 08:30:57;;;;;;;2.22;0.50;;;;;;;10.01;66.21;97524.19;10379946;24;20081;-80
2023/04/02 08:42:38;;;;;;;1.35;0.55;;;;;;;10.98;62.58;97557.63;11697668;24;20083;-82
2023/04/02 08:48:01;;;;;;;1.45;0.50;;;;;;;11.10;61.24;97564.00;9845926;30;20125;-83
2023/04/02 08:53:24;;;;;;;;;;;;;;;11.80;56.51;97573.84;9845346;30;20093;-83
2023/04/02 08:58:49;;;;;;;1.10;0.52;;;;;;;12.50;58.22;97585.63;9856275;30;19957;-83
2023/04/02 09:04:15;;;;;;;1.23;0.57;;;;;;;13.42;53.00;97594.28;9860086;30;20074;-83
2023/04/02 09:09:37;;;;;;;2.50;0.65;;;;;;;13.14;53.17;97609.53;9860139;30;20100;-83
2023/04/02 09:15:06;;;;;;;1.40;0.50;;;;;;;14.98;53.59;97606.41;10089068;24;20076;-88
2023/04/02 09:33:08;;;;;;;0.95;0.45;;;;;;;11.92;49.80;97642.41;11636938;24;20045;-83
2023/04/02 10:10:00;;;;;;;1.73;0.80;;;;;;;8.95;54.11;97719.50;11556813;24;20060;-81
2023/04/02 10:34:55;;;;;;;3.42;1.40;;;;;;;9.49;52.06;97755.44;11552308;24;20040;-84
2023/04/02 11:11:44;;;;;;;2.25;0.90;;;;;;;8.62;52.84;97802.66;11421141;24;20048;-77
2023/04/02 11:17:05;;;;;;;2.35;1.13;;;;;;;8.51;53.23;97803.94;9824210;30;20064;-75
2023/04/02 11:35:44;;;;;;;2.03;1.10;;;;;;;7.95;54.00;97840.66;11955227;24;20129;31
2023/04/02 11:41:07;;;;;;;2.42;1.60;;;;;;;7.98;53.76;97853.38;9797607;30;20048;-81
2023/04/02 11:46:29;;;;;;;4.53;1.70;;;;;;;8.06;53.46;97860.91;9791715;30;20045;-82
2023/04/02 11:51:51;;;;;;;3.15;1.50;;;;;;;7.92;53.91;97868.88;9802672;30;20033;-80
2023/04/02 11:57:36;;;;;;;3.13;1.40;;;;;;;7.68;53.98;97885.03;9799801;30;20064;-81
2023/04/02 12:03:36;;;;;;;2.50;1.55;;;;;;;7.79;54.49;97885.84;9792313;30;20108;-84
2023/04/02 12:40:06;;;;;;;3.63;1.75;;;;;;;8.49;53.76;97937.31;11312611;24;19924;-80
2023/04/02 12:45:29;;;;;;;4.25;1.65;;;;;;;8.24;53.62;97954.84;9778876;30;20571;-78
2023/04/02 13:16:16;;;;;;;3.55;1.48;;;;;;;8.50;53.35;97986.09;10624067;24;20151;-79
2023/04/02 13:21:37;;;;;;;3.08;1.50;;;;;;;8.15;53.48;97983.31;9833407;30;20423;-79
2023/04/02 13:27:02;;;;;;;3.28;1.40;;;;;;;8.12;53.69;97984.47;9815962;30;20116;-79
2023/04/02 13:32:23;;;;;;;3.22;1.23;;;;;;;8.02;53.77;97991.97;9806309;30;20064;-79
2023/04/02 13:37:44;;;;;;;2.67;1.50;;;;;;;7.72;53.44;97990.97;9816686;30;20064;-79
2023/04/02 13:43:06;;;;;;;3.05;1.90;;;;;;;7.62;54.09;98012.34;9807141;30;20083;-79
2023/04/02 13:48:27;;;;;;;2.67;1.30;;;;;;;7.66;54.14;98012.69;9803884;30;20056;-79
2023/04/02 13:53:51;;;;;;;2.42;1.23;;;;;;;7.54;54.09;98020.03;9776259;30;20060;-79
2023/04/02 13:59:12;;;;;;;2.65;1.70;;;;;;;7.41;54.26;98032.16;9798786;30;20064;-78
2023/04/02 14:04:38;;;;;;;5.38;1.83;;;;;;;7.32;54.16;98043.13;9800372;30;20079;-78
2023/04/02 14:10:14;;;;;;;2.80;1.35;;;;;;;7.13;55.20;98036.03;10136462;24;21147;31
2023/04/02 14:16:30;;;;;;;2.70;1.23;;;;;;;7.06;55.39;98053.50;12011749;24;19960;-81
2023/04/02 14:21:58;;;;;;;3.17;1.60;;;;;;;6.94;55.32;98055.19;9763122;30;20057;-79
2023/04/02 14:27:50;;;;;;;2.50;1.60;;;;;;;6.93;55.04;98067.59;9788123;30;20052;-78
2023/04/02 14:33:31;;;;;;;;;;;;;;;6.77;55.83;98074.53;9762252;30;20512;-80
2023/04/02 14:39:08;;;;;;;2.80;1.70;;;;;;;6.80;55.55;98082.47;9782562;30;19931;-79
2023/04/02 15:09:43;;;;;;;3.17;1.85;;;;;;;6.41;56.57;98106.09;11737034;24;20142;-80
2023/04/02 15:40:42;;;;;;;3.58;1.17;;;;;;;6.11;57.18;98142.91;10522611;24;20091;-80
2023/04/02 15:46:30;;;;;;;2.70;0.93;;;;;;;6.02;57.22;98160.09;9803484;30;20148;-79
2023/04/02 15:52:10;;;;;;;3.63;1.52;;;;;;;5.95;57.74;98161.56;9788736;30;20071;-78
2023/04/02 15:57:44;;;;;;;3.92;1.58;;;;;;;5.97;57.08;98163.78;9803407;30;20052;-79
2023/04/02 16:10:19;;;;;;;3.95;0.90;;;;;;;5.84;57.44;98191.63;9813074;30;20417;-79
2023/04/02 16:16:10;;;;;;;3.95;1.08;;;;;;;5.84;57.51;98195.16;9792365;30;20079;-80
2023/04/02 16:21:42;;;;;;;2.67;1.00;;;;;;;5.84;57.19;98203.47;9792234;30;20083;-77
2023/04/02 16:27:21;;;;;;;2.63;1.00;;;;;;;5.81;57.21;98207.34;9777860;30;20053;-76
2023/04/02 16:32:55;;;;;;;2.78;1.15;;;;;;;5.87;57.43;98216.19;9789911;30;20122;-76
2023/04/02 16:38:43;;;;;;;2.33;1.13;;;;;;;5.89;57.05;98213.63;9787380;30;20055;-77
2023/04/02 16:44:22;;;;;;;2.25;0.88;;;;;;;5.87;57.53;98216.19;9784830;30;20497;-78
2023/04/02 16:49:52;;;;;;;2.78;1.08;;;;;;;5.91;57.06;98229.72;9812576;30;20045;-77
2023/04/02 16:55:53;;;;;;;2.47;0.93;;;;;;;5.89;57.39;98241.34;9780103;30;20056;-80
2023/04/02 17:02:16;;;;;;;2.97;1.20;;;;;;;5.82;57.27;98242.06;10664078;24;20072;-81
2023/04/02 17:08:00;;;;;;;1.98;0.90;;;;;;;5.83;57.44;98242.81;10548110;24;20082;-82
2023/04/02 17:14:25;;;;;;;2.57;0.97;;;;;;;5.83;57.86;98260.16;9838163;30;20081;-81
2023/04/02 17:19:52;;;;;;;2.28;1.20;;;;;;;5.85;57.74;98271.44;9810920;30;20057;-77
2023/04/02 17:25:18;;;;;;;3.10;1.40;;;;;;;5.78;57.62;98263.81;9776935;30;20084;-77
2023/04/02 17:30:42;;;;;;;9.38;2.78;;;;;;;5.80;57.98;98266.06;9777819;30;20072;-79
2023/04/02 17:36:22;;;;;;;8.15;3.05;;;;;;;5.80;58.16;98264.03;9792112;30;20118;-78
2023/04/02 17:41:48;;;;;;;6.85;3.15;;;;;;;5.78;58.02;98280.44;9824684;30;20056;-79
2023/04/02 17:47:19;;;;;;;5.63;2.47;;;;;;;5.75;57.77;98287.09;9812408;30;20056;-78
2023/04/02 17:53:03;;;;;;;4.60;2.00;;;;;;;5.73;57.83;98295.22;9810823;30;20052;-78
2023/04/02 17:58:58;;;;;;;4.63;1.63;;;;;;;5.74;58.82;98296.69;9811128;30;20059;-79
2023/04/02 18:04:28;;;;;;;3.28;1.35;;;;;;;5.65;58.59;98294.44;9838900;30;20056;-80
2023/04/02 18:09:53;;;;;;;5.07;1.10;;;;;;;5.52;58.16;98305.66;9836863;30;20067;-80
2023/04/02 18:15:23;;;;;;;1.83;0.93;;;;;;;5.45;58.48;98326.50;9811446;30;20060;-79
2023/04/02 18:21:05;;;;;;;3.08;1.10;;;;;;;5.51;58.63;98332.63;9833855;30;20040;-77
2023/04/02 18:26:46;;;;;;;3.03;1.17;;;;;;;5.51;59.38;98335.38;9809077;30;20072;-81
2023/04/02 18:32:44;;;;;;;2.05;1.13;;;;;;;5.55;59.30;98341.31;9786812;30;20065;-81
2023/04/02 18:45:31;;;;;;;2.53;1.42;;;;;;;5.47;59.71;98357.88;9824037;30;20128;-81
2023/04/02 18:51:20;;;;;;;3.85;1.10;;;;;;;5.46;59.70;98361.94;9795845;30;20196;-80
2023/04/02 18:56:45;;;;;;;3.35;1.48;;;;;;;5.50;59.51;98377.44;9831667;30;20087;-80
2023/04/02 19:02:24;;;;;;;2.15;1.20;;;;;;;5.50;59.86;98371.91;9781213;30;20045;-81
2023/04/02 19:07:57;;;;;;;5.20;1.80;;;;;;;5.49;60.16;98375.97;9817977;30;20068;-79
2023/04/02 19:13:47;;;;;;;5.43;1.80;;;;;;;5.43;59.83;98392.75;9775073;30;20539;-79
2023/04/02 19:27:26;;;;;;;4.50;1.75;;;;;;;5.39;60.45;98400.66;9810267;30;20065;-79
2023/04/02 19:33:06;;;;;;;3.92;1.42;;;;;;;5.43;60.36;98401.06;9788876;30;20056;-79
2023/04/02 19:38:46;;;;;;;2.67;1.33;;;;;;;5.40;60.30;98402.91;9785625;30;20060;-79
2023/04/02 19:44:08;;;;;;;3.10;1.30;;;;;;;5.41;60.62;98407.16;9775100;30;20072;-79
2023/04/02 19:50:05;;;;;;;3.97;1.70;;;;;;;5.38;61.07;98419.28;9802388;30;20072;-81
2023/04/02 19:56:02;;;;;;;3.42;1.65;;;;;;;5.34;60.77;98415.41;9806715;30;20064;-80
2023/04/02 20:01:24;;;;;;;5.20;1.70;;;;;;;5.35;61.35;98423.16;9801063;30;20072;-78
2023/04/02 20:06:45;;;;;;;3.72;1.80;;;;;;;5.34;60.85;98424.44;9779932;30;20060;-75
2023/04/02 20:12:06;;;;;;;3.88;1.55;;;;;;;5.31;61.35;98433.09;9781544;30;20060;-77
2023/04/02 20:17:28;;;;;;;2.60;1.25;;;;;;;5.30;61.32;98432.34;9767014;30;20144;-77
2023/04/02 20:22:49;;;;;;;4.35;2.00;;;;;;;5.18;61.52;98439.44;9766309;30;20528;-77
2023/04/02 20:28:10;;;;;;;4.85;2.05;;;;;;;5.19;61.67;98438.16;9765325;30;20057;-79
2023/04/02 20:33:32;;;;;;;4.50;1.98;;;;;;;5.13;61.24;98441.09;10554195;24;20071;-79
2023/04/02 20:38:53;;;;;;;6.70;2.00;;;;;;;5.18;61.50;98447.75;9786659;30;20551;-78
2023/04/02 20:44:18;;;;;;;3.38;1.65;;;;;;;5.24;61.84;98451.13;9784670;30;20094;-78
2023/04/02 20:49:55;;;;;;;4.82;2.05;;;;;;;5.17;61.97;98451.81;9801579;30;20056;-76
2023/04/02 20:55:18;;;;;;;3.75;1.80;;;;;;;5.18;62.05;98464.34;9798522;30;20152;-76
2023/04/02 21:00:40;;;;;;;5.50;1.58;;;;;;;5.21;61.90;98468.81;9790626;30;20072;-76
2023/04/02 21:06:04;;;;;;;3.45;1.50;;;;;;;5.16;62.00;98472.47;9789493;30;20067;-76
2023/04/02 21:11:46;;;;;;;5.73;2.00;;;;;;;5.15;62.08;98471.72;9788311;30;20068;-76
2023/04/02 21:17:07;;;;;;;3.35;1.60;;;;;;;5.16;62.37;98475.22;9786092;30;20295;-77
2023/04/02 21:22:33;;;;;;;3.72;1.60;;;;;;;5.09;62.37;98475.91;9786079;30;20053;-78
2023/04/02 21:27:54;;;;;;;2.63;1.38;;;;;;;5.01;62.48;98478.59;9787288;30;20064;-78
2023/04/02 21:33:16;;;;;;;3.58;1.58;;;;;;;4.99;62.40;98474.88;9786485;30;20060;-77
2023/04/02 21:38:42;;;;;;;3.58;1.38;;;;;;;5.03;62.95;98486.38;9787223;30;20499;-78
2023/04/02 21:44:05;;;;;;;4.65;1.90;;;;;;;5.03;62.69;98480.84;9772472;30;20069;-78
2023/04/02 21:49:28;;;;;;;4.28;1.90;;;;;;;5.06;62.86;98491.56;9772039;30;20073;-78
2023/04/02 21:54:49;;;;;;;3.47;1.40;;;;;;;5.05;62.78;98494.88;9772566;30;20134;-78
2023/04/02 22:00:12;;;;;;;5.90;1.27;;;;;;;5.09;62.83;98484.94;9785960;30;20057;-77
2023/04/02 22:05:33;;;;;;;4.93;1.73;;;;;;;5.07;62.58;98493.03;9785819;30;20139;-78
2023/04/02 22:10:55;;;;;;;5.57;1.98;;;;;;;5.11;62.74;98489.94;9759389;30;20509;-78
2023/04/02 22:16:22;;;;;;;4.38;1.30;;;;;;;5.11;63.01;98487.91;9771545;30;20064;-78
2023/04/02 22:21:43;;;;;;;5.18;2.25;;;;;;;5.11;62.83;98492.69;9771221;30;20467;-77
2023/04/02 22:27:05;;;;;;;5.28;1.42;;;;;;;5.10;62.70;98502.28;9785874;30;20059;-77
2023/04/02 22:32:26;;;;;;;5.78;1.63;;;;;;;5.09;62.63;98500.81;9770982;30;20479;-78
2023/04/02 22:37:48;;;;;;;3.10;1.55;;;;;;;5.10;62.60;98503.03;9785451;30;20064;-77
2023/04/02 22:43:09;;;;;;;2.80;1.35;;;;;;;5.07;62.81;98498.56;9770818;30;20069;-77
2023/04/02 22:48:31;;;;;;;3.05;1.52;;;;;;;5.12;63.16;98510.81;9785313;30;20500;-77
2023/04/02 22:53:53;;;;;;;4.78;1.60;;;;;;;5.10;62.66;98500.25;9772651;30;20151;-77
2023/04/02 22:59:14;;;;;;;3.22;1.40;;;;;;;5.08;62.44;98504.84;9792150;30;20066;-77
2023/04/02 23:04:36;;;;;;;3.20;1.15;;;;;;;5.09;63.14;98506.34;9792054;30;20067;-78
2023/04/02 23:09:57;;;;;;;5.13;1.42;;;;;;;5.12;63.01;98513.59;9791777;30;20048;-78
2023/04/02 23:15:19;;;;;;;6.45;1.33;;;;;;;5.12;62.79;98513.59;9791984;30;20119;-78
2023/04/02 23:20:40;;;;;;;6.75;1.27;;;;;;;5.12;63.00;98510.81;9777172;30;20437;-77
2023/04/02 23:26:02;;;;;;;3.70;1.23;;;;;;;5.12;62.76;98510.81;9791466;30;20060;-77
2023/04/02 23:31:24;;;;;;;4.57;1.27;;;;;;;5.11;62.82;98514.84;9788526;30;20570;-77
2023/04/02 23:36:45;;;;;;;3.65;1.30;;;;;;;5.04;62.78;98501.69;9776701;30;20076;-77
2023/04/02 23:42:08;;;;;;;4.60;1.60;;;;;;;5.04;62.86;98504.47;9790585;30;20052;-77
2023/04/02 23:47:30;;;;;;;4.93;1.25;;;;;;;5.02;63.21;98507.00;9790667;30;20065;-77
2023/04/02 23:52:51;;;;;;;4.72;1.35;;;;;;;4.94;62.99;98503.44;9790499;30;20057;-78
2023/04/02 23:58:12;;;;;;;5.20;1.63;;;;;;;4.94;63.52;98506.94;9790399;30;20065;-77
